createdAt,value
2023-05-10T00:11:40.102Z,17.5
2023-05-10T00:41:50.745Z,17.3
2023-05-10T01:42:01.534Z,17.4
2023-05-10T02:12:01.974Z,17.3
2023-05-10T02:42:12.599Z,17.3
2023-05-10T03:12:13.001Z,17.4
2023-05-10T03:42:13.889Z,17.3
2023-05-10T04:12:14.297Z,17.4
2023-05-10T04:42:14.710Z,17.3
2023-05-10T05:12:15.393Z,17.3
2023-05-10T05:42:15.837Z,17.4
2023-05-10T06:12:16.387Z,17.3
2023-05-10T06:42:16.833Z,17.4
2023-05-10T07:12:22.217Z,17.3
2023-05-10T08:12:23.189Z,17.4
2023-05-10T08:42:33.547Z,17.5
2023-05-10T09:12:34.324Z,17.5
2023-05-10T09:42:34.735Z,17.5
2023-05-10T10:12:35.461Z,17.4
2023-05-10T10:42:36.162Z,17.5
2023-05-10T11:12:36.578Z,17.7
2023-05-10T12:12:37.821Z,18
2023-05-10T13:12:48.655Z,17.9
2023-05-10T13:42:49.099Z,17.8
2023-05-10T14:12:50.654Z,17.7
2023-05-10T14:42:51.167Z,17.8
2023-05-10T15:12:51.623Z,17.7
2023-05-10T15:42:52.058Z,17.7
2023-05-10T16:13:05.370Z,17.6
2023-05-10T16:43:06.477Z,17.6
2023-05-10T17:43:09.961Z,17.5
2023-05-10T18:13:20.693Z,17.6
2023-05-10T18:43:21.147Z,17.4
2023-05-10T19:13:31.842Z,17.5
2023-05-10T19:43:34.650Z,17.4
2023-05-10T20:13:35.527Z,17.4
2023-05-10T20:43:35.981Z,17.4
2023-05-10T21:13:36.775Z,17.3
2023-05-10T21:43:37.217Z,17.3
2023-05-10T22:43:38.077Z,17.3
2023-05-10T23:13:38.508Z,17.3
2023-05-10T23:43:38.936Z,17.3
